sensor_id;sensor_type;location;lat;lon;timestamp;P1;durP1;ratioP1;P2;durP2;ratioP2
30149;SDS011;16962;48.646;9.026;2023-05-07T00:01:36;6.13;;;4.28;;
30149;SDS011;16962;48.646;9.026;2023-05-07T00:04:43;7.90;;;4.68;;
30149;SDS011;16962;48.646;9.026;2023-05-07T00:07:30;5.97;;;4.10;;
30149;SDS011;16962;48.646;9.026;2023-05-07T00:10:18;5.35;;;3.97;;
30149;SDS011;16962;48.646;9.026;2023-05-07T00:13:05;9.25;;;4.50;;
30149;SDS011;16962;48.646;9.026;2023-05-07T00:15:54;5.60;;;4.10;;
30149;SDS011;16962;48.646;9.026;2023-05-07T00:18:44;4.78;;;4.30;;
30149;SDS011;16962;48.646;9.026;2023-05-07T00:21:31;4.55;;;4.00;;
30149;SDS011;16962;48.646;9.026;2023-05-07T00:24:18;5.57;;;4.10;;
30149;SDS011;16962;48.646;9.026;2023-05-07T00:27:06;8.30;;;4.38;;
30149;SDS011;16962;48.646;9.026;2023-05-07T00:29:56;8.48;;;4.47;;
30149;SDS011;16962;48.646;9.026;2023-05-07T00:32:43;6.18;;;4.30;;
30149;SDS011;16962;48.646;9.026;2023-05-07T00:35:35;7.00;;;4.55;;
30149;SDS011;16962;48.646;9.026;2023-05-07T00:38:22;7.60;;;5.10;;
30149;SDS011;16962;48.646;9.026;2023-05-07T00:41:10;4.75;;;3.42;;
30149;SDS011;16962;48.646;9.026;2023-05-07T00:44:03;6.85;;;4.22;;
30149;SDS011;16962;48.646;9.026;2023-05-07T00:46:51;8.65;;;4.18;;
30149;SDS011;16962;48.646;9.026;2023-05-07T00:49:42;9.32;;;4.47;;
30149;SDS011;16962;48.646;9.026;2023-05-07T00:52:29;7.60;;;4.30;;
30149;SDS011;16962;48.646;9.026;2023-05-07T00:55:20;9.23;;;5.03;;
30149;SDS011;16962;48.646;9.026;2023-05-07T00:58:08;7.68;;;5.45;;
30149;SDS011;16962;48.646;9.026;2023-05-07T01:00:55;7.65;;;4.95;;
30149;SDS011;16962;48.646;9.026;2023-05-07T01:03:42;6.47;;;4.47;;
30149;SDS011;16962;48.646;9.026;2023-05-07T01:06:30;5.32;;;4.30;;
30149;SDS011;16962;48.646;9.026;2023-05-07T01:09:20;7.68;;;4.93;;
30149;SDS011;16962;48.646;9.026;2023-05-07T01:12:07;10.25;;;5.35;;
30149;SDS011;16962;48.646;9.026;2023-05-07T01:14:55;6.38;;;4.50;;
30149;SDS011;16962;48.646;9.026;2023-05-07T01:17:43;5.65;;;4.72;;
30149;SDS011;16962;48.646;9.026;2023-05-07T01:20:33;11.95;;;5.03;;
30149;SDS011;16962;48.646;9.026;2023-05-07T01:23:22;5.72;;;5.03;;
30149;SDS011;16962;48.646;9.026;2023-05-07T01:26:09;7.72;;;5.32;;
30149;SDS011;16962;48.646;9.026;2023-05-07T01:28:57;11.27;;;5.65;;
30149;SDS011;16962;48.646;9.026;2023-05-07T01:31:44;9.52;;;5.25;;
30149;SDS011;16962;48.646;9.026;2023-05-07T01:34:32;11.27;;;5.82;;
30149;SDS011;16962;48.646;9.026;2023-05-07T01:37:26;6.40;;;5.20;;
30149;SDS011;16962;48.646;9.026;2023-05-07T01:40:15;8.23;;;5.68;;
30149;SDS011;16962;48.646;9.026;2023-05-07T01:43:05;8.77;;;5.85;;
30149;SDS011;16962;48.646;9.026;2023-05-07T01:45:56;9.02;;;5.28;;
30149;SDS011;16962;48.646;9.026;2023-05-07T01:48:45;8.45;;;6.03;;
30149;SDS011;16962;48.646;9.026;2023-05-07T01:51:33;6.70;;;5.43;;
30149;SDS011;16962;48.646;9.026;2023-05-07T01:54:24;10.57;;;5.70;;
30149;SDS011;16962;48.646;9.026;2023-05-07T01:57:16;8.02;;;5.68;;
30149;SDS011;16962;48.646;9.026;2023-05-07T02:00:03;7.35;;;5.57;;
30149;SDS011;16962;48.646;9.026;2023-05-07T02:02:52;7.65;;;5.80;;
30149;SDS011;16962;48.646;9.026;2023-05-07T02:05:40;6.25;;;5.65;;
30149;SDS011;16962;48.646;9.026;2023-05-07T02:08:30;7.47;;;5.72;;
30149;SDS011;16962;48.646;9.026;2023-05-07T02:11:17;9.73;;;5.63;;
30149;SDS011;16962;48.646;9.026;2023-05-07T02:14:04;8.95;;;5.15;;
30149;SDS011;16962;48.646;9.026;2023-05-07T02:16:51;7.40;;;5.50;;
30149;SDS011;16962;48.646;9.026;2023-05-07T02:19:41;6.95;;;5.45;;
30149;SDS011;16962;48.646;9.026;2023-05-07T02:22:31;9.63;;;4.93;;
30149;SDS011;16962;48.646;9.026;2023-05-07T02:25:19;7.43;;;5.50;;
30149;SDS011;16962;48.646;9.026;2023-05-07T02:28:07;7.40;;;6.03;;
30149;SDS011;16962;48.646;9.026;2023-05-07T02:30:54;8.57;;;6.20;;
30149;SDS011;16962;48.646;9.026;2023-05-07T02:33:41;8.25;;;5.75;;
30149;SDS011;16962;48.646;9.026;2023-05-07T02:36:29;5.95;;;5.30;;
30149;SDS011;16962;48.646;9.026;2023-05-07T02:39:16;9.93;;;5.65;;
30149;SDS011;16962;48.646;9.026;2023-05-07T02:42:03;8.70;;;5.95;;
30149;SDS011;16962;48.646;9.026;2023-05-07T02:44:50;10.32;;;6.55;;
30149;SDS011;16962;48.646;9.026;2023-05-07T02:47:38;8.25;;;5.47;;
30149;SDS011;16962;48.646;9.026;2023-05-07T02:50:25;8.63;;;6.38;;
30149;SDS011;16962;48.646;9.026;2023-05-07T02:53:13;10.45;;;6.20;;
30149;SDS011;16962;48.646;9.026;2023-05-07T02:56:01;8.13;;;5.55;;
30149;SDS011;16962;48.646;9.026;2023-05-07T02:58:48;5.85;;;5.25;;
30149;SDS011;16962;48.646;9.026;2023-05-07T03:01:37;10.23;;;5.43;;
30149;SDS011;16962;48.646;9.026;2023-05-07T03:04:24;7.28;;;6.35;;
30149;SDS011;16962;48.646;9.026;2023-05-07T03:07:12;9.07;;;7.53;;
30149;SDS011;16962;48.646;9.026;2023-05-07T03:09:59;10.15;;;6.65;;
30149;SDS011;16962;48.646;9.026;2023-05-07T03:12:46;10.32;;;7.25;;
30149;SDS011;16962;48.646;9.026;2023-05-07T03:15:36;10.32;;;8.35;;
30149;SDS011;16962;48.646;9.026;2023-05-07T03:18:23;14.13;;;9.20;;
30149;SDS011;16962;48.646;9.026;2023-05-07T03:21:18;11.77;;;8.57;;
30149;SDS011;16962;48.646;9.026;2023-05-07T03:24:09;11.13;;;8.55;;
30149;SDS011;16962;48.646;9.026;2023-05-07T03:26:56;15.00;;;8.15;;
30149;SDS011;16962;48.646;9.026;2023-05-07T03:29:44;13.60;;;9.27;;
30149;SDS011;16962;48.646;9.026;2023-05-07T03:32:31;15.18;;;9.05;;
30149;SDS011;16962;48.646;9.026;2023-05-07T03:35:21;12.55;;;8.75;;
30149;SDS011;16962;48.646;9.026;2023-05-07T03:38:08;11.30;;;8.52;;
30149;SDS011;16962;48.646;9.026;2023-05-07T03:40:55;11.52;;;8.25;;
30149;SDS011;16962;48.646;9.026;2023-05-07T03:43:43;9.02;;;7.80;;
30149;SDS011;16962;48.646;9.026;2023-05-07T03:46:31;10.13;;;7.82;;
30149;SDS011;16962;48.646;9.026;2023-05-07T03:49:19;11.73;;;7.30;;
30149;SDS011;16962;48.646;9.026;2023-05-07T03:52:09;10.55;;;7.18;;
30149;SDS011;16962;48.646;9.026;2023-05-07T03:54:59;12.43;;;7.40;;
30149;SDS011;16962;48.646;9.026;2023-05-07T03:57:46;10.25;;;7.43;;
30149;SDS011;16962;48.646;9.026;2023-05-07T04:00:35;9.77;;;7.50;;
30149;SDS011;16962;48.646;9.026;2023-05-07T04:03:25;9.27;;;7.35;;
30149;SDS011;16962;48.646;9.026;2023-05-07T04:06:18;10.10;;;7.75;;
30149;SDS011;16962;48.646;9.026;2023-05-07T04:09:05;13.15;;;8.13;;
30149;SDS011;16962;48.646;9.026;2023-05-07T04:11:53;11.48;;;8.35;;
30149;SDS011;16962;48.646;9.026;2023-05-07T04:14:46;11.60;;;8.52;;
30149;SDS011;16962;48.646;9.026;2023-05-07T04:17:36;11.80;;;8.70;;
30149;SDS011;16962;48.646;9.026;2023-05-07T04:20:23;11.70;;;8.38;;
30149;SDS011;16962;48.646;9.026;2023-05-07T04:23:13;12.63;;;8.70;;
30149;SDS011;16962;48.646;9.026;2023-05-07T04:26:00;12.93;;;8.57;;
30149;SDS011;16962;48.646;9.026;2023-05-07T04:28:47;11.48;;;9.02;;
30149;SDS011;16962;48.646;9.026;2023-05-07T04:31:36;13.75;;;8.57;;
30149;SDS011;16962;48.646;9.026;2023-05-07T04:34:23;12.07;;;8.52;;
30149;SDS011;16962;48.646;9.026;2023-05-07T04:37:11;10.00;;;7.35;;
30149;SDS011;16962;48.646;9.026;2023-05-07T04:39:59;9.98;;;7.13;;
30149;SDS011;16962;48.646;9.026;2023-05-07T04:42:47;10.07;;;8.38;;
30149;SDS011;16962;48.646;9.026;2023-05-07T04:45:35;9.90;;;7.78;;
30149;SDS011;16962;48.646;9.026;2023-05-07T04:48:22;13.38;;;7.45;;
30149;SDS011;16962;48.646;9.026;2023-05-07T04:51:09;8.40;;;7.00;;
30149;SDS011;16962;48.646;9.026;2023-05-07T04:54:04;9.68;;;7.32;;
30149;SDS011;16962;48.646;9.026;2023-05-07T04:56:51;10.00;;;7.82;;
30149;SDS011;16962;48.646;9.026;2023-05-07T04:59:38;11.35;;;8.52;;
30149;SDS011;16962;48.646;9.026;2023-05-07T05:02:25;10.00;;;7.70;;
30149;SDS011;16962;48.646;9.026;2023-05-07T05:05:13;9.60;;;6.88;;
30149;SDS011;16962;48.646;9.026;2023-05-07T05:08:00;9.60;;;6.65;;
30149;SDS011;16962;48.646;9.026;2023-05-07T05:10:47;12.07;;;6.88;;
30149;SDS011;16962;48.646;9.026;2023-05-07T05:13:38;10.68;;;6.65;;
30149;SDS011;16962;48.646;9.026;2023-05-07T05:16:26;8.60;;;6.30;;
30149;SDS011;16962;48.646;9.026;2023-05-07T05:19:13;10.90;;;6.18;;
30149;SDS011;16962;48.646;9.026;2023-05-07T05:22:01;11.50;;;5.80;;
30149;SDS011;16962;48.646;9.026;2023-05-07T05:24:50;7.07;;;5.65;;
30149;SDS011;16962;48.646;9.026;2023-05-07T05:27:39;7.63;;;6.20;;
30149;SDS011;16962;48.646;9.026;2023-05-07T05:30:27;9.20;;;6.47;;
30149;SDS011;16962;48.646;9.026;2023-05-07T05:33:14;9.25;;;7.40;;
30149;SDS011;16962;48.646;9.026;2023-05-07T05:36:01;9.77;;;6.93;;
30149;SDS011;16962;48.646;9.026;2023-05-07T05:38:48;9.65;;;6.35;;
30149;SDS011;16962;48.646;9.026;2023-05-07T05:41:35;7.70;;;6.13;;
30149;SDS011;16962;48.646;9.026;2023-05-07T05:44:23;8.43;;;5.25;;
30149;SDS011;16962;48.646;9.026;2023-05-07T05:47:10;6.70;;;4.30;;
30149;SDS011;16962;48.646;9.026;2023-05-07T05:49:57;6.47;;;4.53;;
30149;SDS011;16962;48.646;9.026;2023-05-07T05:52:45;6.57;;;4.60;;
30149;SDS011;16962;48.646;9.026;2023-05-07T05:55:32;7.43;;;5.13;;
30149;SDS011;16962;48.646;9.026;2023-05-07T05:58:43;9.00;;;5.50;;
30149;SDS011;16962;48.646;9.026;2023-05-07T06:01:30;6.35;;;4.22;;
30149;SDS011;16962;48.646;9.026;2023-05-07T06:04:17;6.80;;;3.58;;
30149;SDS011;16962;48.646;9.026;2023-05-07T06:07:04;6.65;;;3.80;;
30149;SDS011;16962;48.646;9.026;2023-05-07T06:09:57;5.43;;;3.53;;
30149;SDS011;16962;48.646;9.026;2023-05-07T06:12:46;3.58;;;3.28;;
30149;SDS011;16962;48.646;9.026;2023-05-07T06:15:34;5.25;;;3.50;;
30149;SDS011;16962;48.646;9.026;2023-05-07T06:18:21;6.93;;;3.97;;
30149;SDS011;16962;48.646;9.026;2023-05-07T06:21:09;7.32;;;4.10;;
30149;SDS011;16962;48.646;9.026;2023-05-07T06:23:56;6.90;;;3.35;;
30149;SDS011;16962;48.646;9.026;2023-05-07T06:26:43;8.00;;;3.88;;
30149;SDS011;16962;48.646;9.026;2023-05-07T06:29:31;4.20;;;3.03;;
30149;SDS011;16962;48.646;9.026;2023-05-07T06:32:20;3.90;;;2.80;;
30149;SDS011;16962;48.646;9.026;2023-05-07T06:35:07;7.30;;;3.72;;
30149;SDS011;16962;48.646;9.026;2023-05-07T06:37:57;6.55;;;3.97;;
30149;SDS011;16962;48.646;9.026;2023-05-07T06:40:47;6.43;;;4.38;;
30149;SDS011;16962;48.646;9.026;2023-05-07T06:43:35;4.50;;;3.40;;
30149;SDS011;16962;48.646;9.026;2023-05-07T06:46:23;5.10;;;3.58;;
30149;SDS011;16962;48.646;9.026;2023-05-07T06:49:10;6.13;;;4.55;;
30149;SDS011;16962;48.646;9.026;2023-05-07T06:52:01;6.18;;;3.55;;
30149;SDS011;16962;48.646;9.026;2023-05-07T06:54:48;5.43;;;3.88;;
30149;SDS011;16962;48.646;9.026;2023-05-07T06:57:35;5.55;;;3.40;;
30149;SDS011;16962;48.646;9.026;2023-05-07T07:00:24;4.72;;;3.90;;
30149;SDS011;16962;48.646;9.026;2023-05-07T07:03:11;5.05;;;3.72;;
30149;SDS011;16962;48.646;9.026;2023-05-07T07:05:59;4.43;;;3.42;;
30149;SDS011;16962;48.646;9.026;2023-05-07T07:08:47;5.47;;;3.83;;
30149;SDS011;16962;48.646;9.026;2023-05-07T07:19:41;4.63;;;3.05;;
30149;SDS011;16962;48.646;9.026;2023-05-07T07:22:29;3.67;;;2.50;;
30149;SDS011;16962;48.646;9.026;2023-05-07T07:25:18;3.38;;;2.53;;
30149;SDS011;16962;48.646;9.026;2023-05-07T07:28:05;6.10;;;2.70;;
30149;SDS011;16962;48.646;9.026;2023-05-07T07:30:53;6.28;;;2.58;;
30149;SDS011;16962;48.646;9.026;2023-05-07T07:33:41;2.40;;;1.88;;
30149;SDS011;16962;48.646;9.026;2023-05-07T07:36:28;3.63;;;2.15;;
30149;SDS011;16962;48.646;9.026;2023-05-07T07:39:31;2.50;;;2.20;;
30149;SDS011;16962;48.646;9.026;2023-05-07T07:42:20;4.72;;;2.40;;
30149;SDS011;16962;48.646;9.026;2023-05-07T07:45:08;5.05;;;2.15;;
30149;SDS011;16962;48.646;9.026;2023-05-07T07:47:55;3.55;;;2.38;;
30149;SDS011;16962;48.646;9.026;2023-05-07T07:50:47;5.70;;;2.15;;
30149;SDS011;16962;48.646;9.026;2023-05-07T07:53:36;3.47;;;2.58;;
30149;SDS011;16962;48.646;9.026;2023-05-07T07:56:23;3.42;;;1.88;;
30149;SDS011;16962;48.646;9.026;2023-05-07T07:59:11;4.97;;;2.20;;
30149;SDS011;16962;48.646;9.026;2023-05-07T08:01:58;4.68;;;2.17;;
30149;SDS011;16962;48.646;9.026;2023-05-07T08:04:45;4.18;;;2.10;;
30149;SDS011;16962;48.646;9.026;2023-05-07T08:07:32;4.13;;;2.15;;
30149;SDS011;16962;48.646;9.026;2023-05-07T08:10:20;2.92;;;1.73;;
30149;SDS011;16962;48.646;9.026;2023-05-07T08:13:10;2.22;;;1.70;;
30149;SDS011;16962;48.646;9.026;2023-05-07T08:15:59;2.35;;;1.60;;
30149;SDS011;16962;48.646;9.026;2023-05-07T08:18:46;2.83;;;1.60;;
30149;SDS011;16962;48.646;9.026;2023-05-07T08:21:34;2.25;;;1.52;;
30149;SDS011;16962;48.646;9.026;2023-05-07T08:24:25;2.42;;;1.60;;
30149;SDS011;16962;48.646;9.026;2023-05-07T08:27:12;2.38;;;1.48;;
30149;SDS011;16962;48.646;9.026;2023-05-07T08:29:59;4.45;;;1.70;;
30149;SDS011;16962;48.646;9.026;2023-05-07T08:32:46;3.30;;;1.63;;
30149;SDS011;16962;48.646;9.026;2023-05-07T08:35:36;2.85;;;1.80;;
30149;SDS011;16962;48.646;9.026;2023-05-07T08:38:23;2.58;;;1.83;;
30149;SDS011;16962;48.646;9.026;2023-05-07T08:41:10;5.28;;;2.03;;
30149;SDS011;16962;48.646;9.026;2023-05-07T08:44:06;7.82;;;1.88;;
30149;SDS011;16962;48.646;9.026;2023-05-07T08:46:58;3.15;;;1.85;;
30149;SDS011;16962;48.646;9.026;2023-05-07T08:49:50;3.97;;;1.70;;
30149;SDS011;16962;48.646;9.026;2023-05-07T08:52:41;3.05;;;1.30;;
30149;SDS011;16962;48.646;9.026;2023-05-07T08:55:28;2.05;;;1.40;;
30149;SDS011;16962;48.646;9.026;2023-05-07T08:58:16;6.00;;;1.58;;
30149;SDS011;16962;48.646;9.026;2023-05-07T09:01:07;2.75;;;1.60;;
30149;SDS011;16962;48.646;9.026;2023-05-07T09:03:57;2.00;;;1.42;;
30149;SDS011;16962;48.646;9.026;2023-05-07T09:06:44;3.50;;;1.58;;
30149;SDS011;16962;48.646;9.026;2023-05-07T09:09:34;4.47;;;1.52;;
30149;SDS011;16962;48.646;9.026;2023-05-07T09:12:22;3.20;;;1.50;;
30149;SDS011;16962;48.646;9.026;2023-05-07T09:15:09;5.03;;;1.30;;
30149;SDS011;16962;48.646;9.026;2023-05-07T09:18:02;3.58;;;1.30;;
30149;SDS011;16962;48.646;9.026;2023-05-07T09:20:50;3.00;;;1.25;;
30149;SDS011;16962;48.646;9.026;2023-05-07T09:23:38;2.58;;;1.20;;
30149;SDS011;16962;48.646;9.026;2023-05-07T09:26:26;3.30;;;1.58;;
30149;SDS011;16962;48.646;9.026;2023-05-07T09:29:15;2.10;;;1.30;;
30149;SDS011;16962;48.646;9.026;2023-05-07T09:32:04;3.30;;;1.67;;
30149;SDS011;16962;48.646;9.026;2023-05-07T09:34:55;2.30;;;1.33;;
30149;SDS011;16962;48.646;9.026;2023-05-07T09:37:43;2.35;;;1.50;;
30149;SDS011;16962;48.646;9.026;2023-05-07T09:40:30;3.00;;;1.60;;
30149;SDS011;16962;48.646;9.026;2023-05-07T09:43:18;3.17;;;1.50;;
30149;SDS011;16962;48.646;9.026;2023-05-07T09:46:07;4.28;;;1.60;;
30149;SDS011;16962;48.646;9.026;2023-05-07T09:49:02;3.35;;;1.85;;
30149;SDS011;16962;48.646;9.026;2023-05-07T09:51:51;2.35;;;1.40;;
30149;SDS011;16962;48.646;9.026;2023-05-07T09:54:39;3.28;;;1.40;;
30149;SDS011;16962;48.646;9.026;2023-05-07T09:57:30;3.58;;;1.70;;
30149;SDS011;16962;48.646;9.026;2023-05-07T10:00:19;2.90;;;1.77;;
30149;SDS011;16962;48.646;9.026;2023-05-07T10:03:08;2.88;;;1.35;;
30149;SDS011;16962;48.646;9.026;2023-05-07T10:06:06;2.38;;;1.40;;
30149;SDS011;16962;48.646;9.026;2023-05-07T10:08:55;2.75;;;1.52;;
30149;SDS011;16962;48.646;9.026;2023-05-07T10:11:43;3.00;;;1.60;;
30149;SDS011;16962;48.646;9.026;2023-05-07T10:14:30;2.90;;;1.48;;
30149;SDS011;16962;48.646;9.026;2023-05-07T10:17:18;2.63;;;1.48;;
30149;SDS011;16962;48.646;9.026;2023-05-07T10:20:06;2.30;;;1.35;;
30149;SDS011;16962;48.646;9.026;2023-05-07T10:22:55;1.83;;;1.55;;
30149;SDS011;16962;48.646;9.026;2023-05-07T10:25:46;2.50;;;1.40;;
30149;SDS011;16962;48.646;9.026;2023-05-07T10:28:43;4.30;;;1.40;;
30149;SDS011;16962;48.646;9.026;2023-05-07T10:31:37;3.33;;;1.73;;
30149;SDS011;16962;48.646;9.026;2023-05-07T10:34:32;3.15;;;1.65;;
30149;SDS011;16962;48.646;9.026;2023-05-07T10:37:24;3.88;;;1.80;;
30149;SDS011;16962;48.646;9.026;2023-05-07T10:40:14;2.85;;;1.50;;
30149;SDS011;16962;48.646;9.026;2023-05-07T10:43:06;4.85;;;1.35;;
30149;SDS011;16962;48.646;9.026;2023-05-07T11:01:26;3.00;;;1.40;;
30149;SDS011;16962;48.646;9.026;2023-05-07T11:04:45;6.20;;;2.25;;
30149;SDS011;16962;48.646;9.026;2023-05-07T11:08:15;4.05;;;1.30;;
30149;SDS011;16962;48.646;9.026;2023-05-07T11:11:02;1.40;;;1.13;;
30149;SDS011;16962;48.646;9.026;2023-05-07T11:17:54;2.05;;;1.35;;
30149;SDS011;16962;48.646;9.026;2023-05-07T11:20:50;3.50;;;1.30;;
30149;SDS011;16962;48.646;9.026;2023-05-07T11:26:50;3.25;;;1.70;;
30149;SDS011;16962;48.646;9.026;2023-05-07T11:29:41;2.75;;;1.50;;
30149;SDS011;16962;48.646;9.026;2023-05-07T11:32:39;3.28;;;1.33;;
30149;SDS011;16962;48.646;9.026;2023-05-07T11:38:54;3.65;;;1.70;;
30149;SDS011;16962;48.646;9.026;2023-05-07T11:41:46;2.63;;;1.70;;
30149;SDS011;16962;48.646;9.026;2023-05-07T11:45:06;2.40;;;1.60;;
30149;SDS011;16962;48.646;9.026;2023-05-07T11:47:56;4.07;;;1.40;;
30149;SDS011;16962;48.646;9.026;2023-05-07T11:50:53;2.40;;;1.38;;
30149;SDS011;16962;48.646;9.026;2023-05-07T11:57:28;3.05;;;1.80;;
30149;SDS011;16962;48.646;9.026;2023-05-07T12:00:17;3.03;;;1.60;;
30149;SDS011;16962;48.646;9.026;2023-05-07T12:03:05;2.30;;;1.50;;
30149;SDS011;16962;48.646;9.026;2023-05-07T12:05:56;5.90;;;1.90;;
30149;SDS011;16962;48.646;9.026;2023-05-07T12:08:44;3.65;;;2.10;;
30149;SDS011;16962;48.646;9.026;2023-05-07T12:11:35;5.93;;;1.95;;
30149;SDS011;16962;48.646;9.026;2023-05-07T12:14:26;11.13;;;2.65;;
30149;SDS011;16962;48.646;9.026;2023-05-07T12:17:16;21.10;;;5.43;;
30149;SDS011;16962;48.646;9.026;2023-05-07T12:20:07;13.48;;;4.43;;
30149;SDS011;16962;48.646;9.026;2023-05-07T12:22:56;13.23;;;4.07;;
30149;SDS011;16962;48.646;9.026;2023-05-07T12:25:43;12.35;;;3.75;;
30149;SDS011;16962;48.646;9.026;2023-05-07T12:28:37;48.92;;;8.18;;
30149;SDS011;16962;48.646;9.026;2023-05-07T12:31:27;26.90;;;5.90;;
30149;SDS011;16962;48.646;9.026;2023-05-07T12:34:17;10.10;;;4.72;;
30149;SDS011;16962;48.646;9.026;2023-05-07T12:37:04;10.35;;;4.05;;
30149;SDS011;16962;48.646;9.026;2023-05-07T12:40:04;15.55;;;4.05;;
30149;SDS011;16962;48.646;9.026;2023-05-07T12:42:55;18.30;;;4.80;;
30149;SDS011;16962;48.646;9.026;2023-05-07T12:45:46;15.45;;;4.70;;
30149;SDS011;16962;48.646;9.026;2023-05-07T12:48:36;14.10;;;5.95;;
30149;SDS011;16962;48.646;9.026;2023-05-07T12:51:24;15.40;;;7.13;;
30149;SDS011;16962;48.646;9.026;2023-05-07T12:54:11;12.00;;;7.60;;
30149;SDS011;16962;48.646;9.026;2023-05-07T12:57:02;34.17;;;8.70;;
30149;SDS011;16962;48.646;9.026;2023-05-07T12:59:57;39.80;;;8.80;;
30149;SDS011;16962;48.646;9.026;2023-05-07T13:02:47;34.83;;;7.32;;
30149;SDS011;16962;48.646;9.026;2023-05-07T13:05:37;11.98;;;4.80;;
30149;SDS011;16962;48.646;9.026;2023-05-07T13:08:35;11.63;;;4.13;;
30149;SDS011;16962;48.646;9.026;2023-05-07T13:11:46;6.07;;;3.25;;
30149;SDS011;16962;48.646;9.026;2023-05-07T13:14:37;4.90;;;3.50;;
30149;SDS011;16962;48.646;9.026;2023-05-07T13:17:26;5.32;;;4.22;;
30149;SDS011;16962;48.646;9.026;2023-05-07T13:20:21;8.70;;;4.22;;
30149;SDS011;16962;48.646;9.026;2023-05-07T13:23:09;5.65;;;4.53;;
30149;SDS011;16962;48.646;9.026;2023-05-07T13:25:57;9.57;;;6.35;;
30149;SDS011;16962;48.646;9.026;2023-05-07T13:28:46;10.65;;;5.60;;
30149;SDS011;16962;48.646;9.026;2023-05-07T13:31:38;13.00;;;5.77;;
30149;SDS011;16962;48.646;9.026;2023-05-07T13:34:29;8.60;;;6.30;;
30149;SDS011;16962;48.646;9.026;2023-05-07T13:37:21;8.80;;;5.78;;
30149;SDS011;16962;48.646;9.026;2023-05-07T13:40:09;12.02;;;5.45;;
30149;SDS011;16962;48.646;9.026;2023-05-07T13:43:00;11.57;;;5.50;;
30149;SDS011;16962;48.646;9.026;2023-05-07T13:45:48;7.88;;;5.55;;
30149;SDS011;16962;48.646;9.026;2023-05-07T13:48:36;7.35;;;5.05;;
30149;SDS011;16962;48.646;9.026;2023-05-07T13:51:24;7.97;;;4.70;;
30149;SDS011;16962;48.646;9.026;2023-05-07T13:54:13;6.80;;;4.35;;
30149;SDS011;16962;48.646;9.026;2023-05-07T13:57:00;11.48;;;5.15;;
30149;SDS011;16962;48.646;9.026;2023-05-07T13:59:50;11.88;;;5.65;;
30149;SDS011;16962;48.646;9.026;2023-05-07T14:02:37;8.77;;;5.68;;
30149;SDS011;16962;48.646;9.026;2023-05-07T14:05:25;10.10;;;5.63;;
30149;SDS011;16962;48.646;9.026;2023-05-07T14:08:14;13.43;;;6.15;;
30149;SDS011;16962;48.646;9.026;2023-05-07T14:11:04;14.38;;;7.57;;
30149;SDS011;16962;48.646;9.026;2023-05-07T14:13:51;18.25;;;7.50;;
30149;SDS011;16962;48.646;9.026;2023-05-07T14:16:42;11.27;;;7.43;;
30149;SDS011;16962;48.646;9.026;2023-05-07T14:19:30;9.57;;;5.78;;
30149;SDS011;16962;48.646;9.026;2023-05-07T14:22:17;8.80;;;5.05;;
30149;SDS011;16962;48.646;9.026;2023-05-07T14:25:05;10.68;;;5.63;;
30149;SDS011;16962;48.646;9.026;2023-05-07T14:27:53;11.20;;;6.38;;
30149;SDS011;16962;48.646;9.026;2023-05-07T14:30:42;14.82;;;7.15;;
30149;SDS011;16962;48.646;9.026;2023-05-07T14:33:30;14.13;;;8.35;;
30149;SDS011;16962;48.646;9.026;2023-05-07T14:36:18;13.80;;;9.20;;
30149;SDS011;16962;48.646;9.026;2023-05-07T14:39:09;14.03;;;9.53;;
30149;SDS011;16962;48.646;9.026;2023-05-07T14:41:59;19.13;;;9.85;;
30149;SDS011;16962;48.646;9.026;2023-05-07T14:44:46;15.18;;;10.55;;
30149;SDS011;16962;48.646;9.026;2023-05-07T14:47:35;12.77;;;9.55;;
30149;SDS011;16962;48.646;9.026;2023-05-07T14:50:22;19.58;;;9.98;;
30149;SDS011;16962;48.646;9.026;2023-05-07T14:53:10;14.45;;;10.20;;
30149;SDS011;16962;48.646;9.026;2023-05-07T14:55:57;16.23;;;10.50;;
30149;SDS011;16962;48.646;9.026;2023-05-07T14:58:46;19.52;;;10.20;;
30149;SDS011;16962;48.646;9.026;2023-05-07T15:01:35;11.63;;;8.75;;
30149;SDS011;16962;48.646;9.026;2023-05-07T15:04:29;13.82;;;8.77;;
30149;SDS011;16962;48.646;9.026;2023-05-07T15:07:19;14.63;;;8.98;;
30149;SDS011;16962;48.646;9.026;2023-05-07T15:10:07;18.17;;;11.15;;
30149;SDS011;16962;48.646;9.026;2023-05-07T15:12:55;20.15;;;10.45;;
30149;SDS011;16962;48.646;9.026;2023-05-07T15:15:43;16.15;;;9.98;;
30149;SDS011;16962;48.646;9.026;2023-05-07T15:18:32;15.30;;;9.50;;
30149;SDS011;16962;48.646;9.026;2023-05-07T15:21:19;15.02;;;9.68;;
30149;SDS011;16962;48.646;9.026;2023-05-07T15:24:08;17.63;;;9.98;;
30149;SDS011;16962;48.646;9.026;2023-05-07T15:26:58;16.60;;;9.70;;
30149;SDS011;16962;48.646;9.026;2023-05-07T15:29:46;13.85;;;9.23;;
30149;SDS011;16962;48.646;9.026;2023-05-07T15:32:34;12.68;;;8.23;;
30149;SDS011;16962;48.646;9.026;2023-05-07T15:35:22;11.48;;;6.55;;
30149;SDS011;16962;48.646;9.026;2023-05-07T15:38:10;9.10;;;6.05;;
30149;SDS011;16962;48.646;9.026;2023-05-07T15:40:57;10.23;;;5.82;;
30149;SDS011;16962;48.646;9.026;2023-05-07T15:43:48;9.77;;;6.78;;
30149;SDS011;16962;48.646;9.026;2023-05-07T15:46:37;7.28;;;5.70;;
30149;SDS011;16962;48.646;9.026;2023-05-07T15:49:24;7.25;;;5.80;;
30149;SDS011;16962;48.646;9.026;2023-05-07T15:52:14;9.50;;;5.70;;
30149;SDS011;16962;48.646;9.026;2023-05-07T15:55:03;8.10;;;5.10;;
30149;SDS011;16962;48.646;9.026;2023-05-07T15:57:52;6.50;;;4.18;;
30149;SDS011;16962;48.646;9.026;2023-05-07T16:00:42;5.70;;;4.40;;
30149;SDS011;16962;48.646;9.026;2023-05-07T16:03:30;6.60;;;4.32;;
30149;SDS011;16962;48.646;9.026;2023-05-07T16:06:18;7.22;;;4.20;;
30149;SDS011;16962;48.646;9.026;2023-05-07T16:09:06;5.10;;;3.80;;
30149;SDS011;16962;48.646;9.026;2023-05-07T16:11:55;3.58;;;3.25;;
30149;SDS011;16962;48.646;9.026;2023-05-07T16:14:48;5.60;;;3.42;;
30149;SDS011;16962;48.646;9.026;2023-05-07T16:17:37;4.60;;;3.08;;
30149;SDS011;16962;48.646;9.026;2023-05-07T16:20:30;5.93;;;3.90;;
30149;SDS011;16962;48.646;9.026;2023-05-07T16:23:17;7.72;;;3.75;;
30149;SDS011;16962;48.646;9.026;2023-05-07T16:26:07;5.80;;;3.38;;
30149;SDS011;16962;48.646;9.026;2023-05-07T16:28:55;8.50;;;3.17;;
30149;SDS011;16962;48.646;9.026;2023-05-07T16:31:43;6.97;;;3.45;;
30149;SDS011;16962;48.646;9.026;2023-05-07T16:34:31;4.47;;;2.90;;
30149;SDS011;16962;48.646;9.026;2023-05-07T16:37:18;6.18;;;3.05;;
30149;SDS011;16962;48.646;9.026;2023-05-07T16:40:08;8.63;;;3.25;;
30149;SDS011;16962;48.646;9.026;2023-05-07T16:42:59;8.00;;;3.65;;
30149;SDS011;16962;48.646;9.026;2023-05-07T16:45:47;5.50;;;3.00;;
30149;SDS011;16962;48.646;9.026;2023-05-07T16:48:34;5.97;;;3.28;;
30149;SDS011;16962;48.646;9.026;2023-05-07T16:51:22;6.13;;;3.20;;
30149;SDS011;16962;48.646;9.026;2023-05-07T16:54:10;5.50;;;3.20;;
30149;SDS011;16962;48.646;9.026;2023-05-07T16:56:57;4.72;;;3.13;;
30149;SDS011;16962;48.646;9.026;2023-05-07T16:59:50;6.95;;;3.50;;
30149;SDS011;16962;48.646;9.026;2023-05-07T17:02:38;7.90;;;3.63;;
30149;SDS011;16962;48.646;9.026;2023-05-07T17:05:26;10.38;;;4.25;;
30149;SDS011;16962;48.646;9.026;2023-05-07T17:08:13;6.40;;;4.30;;
30149;SDS011;16962;48.646;9.026;2023-05-07T17:11:01;5.78;;;3.75;;
30149;SDS011;16962;48.646;9.026;2023-05-07T17:13:49;4.85;;;3.85;;
30149;SDS011;16962;48.646;9.026;2023-05-07T17:16:37;4.60;;;3.85;;
30149;SDS011;16962;48.646;9.026;2023-05-07T17:19:28;6.07;;;3.97;;
30149;SDS011;16962;48.646;9.026;2023-05-07T17:22:16;12.70;;;7.65;;
30149;SDS011;16962;48.646;9.026;2023-05-07T17:25:06;18.88;;;4.63;;
30149;SDS011;16962;48.646;9.026;2023-05-07T17:27:54;5.70;;;4.22;;
30149;SDS011;16962;48.646;9.026;2023-05-07T17:30:46;11.32;;;7.72;;
30149;SDS011;16962;48.646;9.026;2023-05-07T17:33:35;9.35;;;5.05;;